sensor_id;sensor_type;location;lat;lon;timestamp;P1;durP1;ratioP1;P2;durP2;ratioP2
23078;SDS011;11707;50.830;4.364;2023-02-15T00:01:26;48.05;;;27.40;;
23078;SDS011;11707;50.830;4.364;2023-02-15T00:03:52;46.28;;;25.42;;
23078;SDS011;11707;50.830;4.364;2023-02-15T00:06:18;44.15;;;26.80;;
23078;SDS011;11707;50.830;4.364;2023-02-15T00:08:44;40.72;;;26.02;;
23078;SDS011;11707;50.830;4.364;2023-02-15T00:11:10;43.95;;;26.02;;
23078;SDS011;11707;50.830;4.364;2023-02-15T00:13:38;45.70;;;27.83;;
23078;SDS011;11707;50.830;4.364;2023-02-15T00:16:07;49.00;;;32.03;;
23078;SDS011;11707;50.830;4.364;2023-02-15T00:18:35;56.47;;;30.48;;
23078;SDS011;11707;50.830;4.364;2023-02-15T00:21:05;50.20;;;28.73;;
23078;SDS011;11707;50.830;4.364;2023-02-15T00:23:33;49.63;;;28.30;;
23078;SDS011;11707;50.830;4.364;2023-02-15T00:26:06;41.65;;;25.85;;
23078;SDS011;11707;50.830;4.364;2023-02-15T00:28:33;43.45;;;26.52;;
23078;SDS011;11707;50.830;4.364;2023-02-15T00:31:06;47.85;;;25.63;;
23078;SDS011;11707;50.830;4.364;2023-02-15T00:33:33;46.85;;;26.48;;
23078;SDS011;11707;50.830;4.364;2023-02-15T00:35:59;41.92;;;23.40;;
23078;SDS011;11707;50.830;4.364;2023-02-15T00:38:26;44.08;;;25.33;;
23078;SDS011;11707;50.830;4.364;2023-02-15T00:40:53;45.75;;;27.23;;
23078;SDS011;11707;50.830;4.364;2023-02-15T00:43:20;44.13;;;26.27;;
23078;SDS011;11707;50.830;4.364;2023-02-15T00:45:46;47.33;;;26.20;;
23078;SDS011;11707;50.830;4.364;2023-02-15T00:48:12;45.70;;;26.92;;
23078;SDS011;11707;50.830;4.364;2023-02-15T00:50:37;49.47;;;26.48;;
23078;SDS011;11707;50.830;4.364;2023-02-15T00:53:03;43.42;;;27.45;;
23078;SDS011;11707;50.830;4.364;2023-02-15T00:55:29;45.60;;;26.95;;
23078;SDS011;11707;50.830;4.364;2023-02-15T00:57:54;47.55;;;27.60;;
23078;SDS011;11707;50.830;4.364;2023-02-15T01:00:20;45.38;;;27.00;;
23078;SDS011;11707;50.830;4.364;2023-02-15T01:02:46;47.75;;;28.08;;
23078;SDS011;11707;50.830;4.364;2023-02-15T01:05:12;45.05;;;26.85;;
23078;SDS011;11707;50.830;4.364;2023-02-15T01:07:38;45.53;;;27.05;;
23078;SDS011;11707;50.830;4.364;2023-02-15T01:10:05;46.70;;;27.05;;
23078;SDS011;11707;50.830;4.364;2023-02-15T01:12:31;46.45;;;27.13;;
23078;SDS011;11707;50.830;4.364;2023-02-15T01:14:57;50.42;;;28.15;;
23078;SDS011;11707;50.830;4.364;2023-02-15T01:17:23;45.95;;;27.60;;
23078;SDS011;11707;50.830;4.364;2023-02-15T01:19:51;44.22;;;27.60;;
23078;SDS011;11707;50.830;4.364;2023-02-15T01:22:18;50.05;;;27.17;;
23078;SDS011;11707;50.830;4.364;2023-02-15T01:24:44;41.58;;;25.70;;
23078;SDS011;11707;50.830;4.364;2023-02-15T01:27:10;47.45;;;26.73;;
23078;SDS011;11707;50.830;4.364;2023-02-15T01:29:35;46.40;;;26.73;;
23078;SDS011;11707;50.830;4.364;2023-02-15T01:32:01;49.38;;;28.27;;
23078;SDS011;11707;50.830;4.364;2023-02-15T01:34:28;46.28;;;27.08;;
23078;SDS011;11707;50.830;4.364;2023-02-15T01:36:55;48.00;;;27.77;;
23078;SDS011;11707;50.830;4.364;2023-02-15T01:39:20;47.17;;;26.02;;
23078;SDS011;11707;50.830;4.364;2023-02-15T01:41:46;45.22;;;25.70;;
23078;SDS011;11707;50.830;4.364;2023-02-15T01:47:33;46.05;;;27.35;;
23078;SDS011;11707;50.830;4.364;2023-02-15T01:52:35;43.03;;;25.48;;
23078;SDS011;11707;50.830;4.364;2023-02-15T01:55:03;47.55;;;27.95;;
23078;SDS011;11707;50.830;4.364;2023-02-15T01:57:30;39.33;;;25.55;;
23078;SDS011;11707;50.830;4.364;2023-02-15T01:59:56;46.58;;;27.63;;
23078;SDS011;11707;50.830;4.364;2023-02-15T02:02:26;43.50;;;26.40;;
23078;SDS011;11707;50.830;4.364;2023-02-15T02:04:54;41.88;;;25.08;;
23078;SDS011;11707;50.830;4.364;2023-02-15T02:07:24;43.35;;;26.70;;
23078;SDS011;11707;50.830;4.364;2023-02-15T02:09:52;41.00;;;25.00;;
23078;SDS011;11707;50.830;4.364;2023-02-15T02:12:18;41.30;;;25.17;;
23078;SDS011;11707;50.830;4.364;2023-02-15T02:14:46;47.45;;;26.17;;
23078;SDS011;11707;50.830;4.364;2023-02-15T02:17:17;42.67;;;25.70;;
23078;SDS011;11707;50.830;4.364;2023-02-15T02:20:15;41.65;;;25.85;;
23078;SDS011;11707;50.830;4.364;2023-02-15T02:42:05;45.90;;;26.50;;
23078;SDS011;11707;50.830;4.364;2023-02-15T02:44:41;38.17;;;25.00;;
23078;SDS011;11707;50.830;4.364;2023-02-15T02:47:20;45.67;;;26.88;;
23078;SDS011;11707;50.830;4.364;2023-02-15T02:49:51;41.13;;;27.25;;
23078;SDS011;11707;50.830;4.364;2023-02-15T02:52:39;46.30;;;27.73;;
23078;SDS011;11707;50.830;4.364;2023-02-15T02:55:15;43.67;;;26.80;;
23078;SDS011;11707;50.830;4.364;2023-02-15T03:03:20;43.67;;;26.27;;
23078;SDS011;11707;50.830;4.364;2023-02-15T03:06:02;40.20;;;27.27;;
23078;SDS011;11707;50.830;4.364;2023-02-15T03:08:37;43.17;;;26.50;;
23078;SDS011;11707;50.830;4.364;2023-02-15T03:13:36;48.22;;;28.48;;
23078;SDS011;11707;50.830;4.364;2023-02-15T03:16:02;42.63;;;25.55;;
23078;SDS011;11707;50.830;4.364;2023-02-15T03:18:51;42.70;;;26.65;;
23078;SDS011;11707;50.830;4.364;2023-02-15T03:24:00;46.35;;;26.83;;
23078;SDS011;11707;50.830;4.364;2023-02-15T03:26:49;39.65;;;25.73;;
23078;SDS011;11707;50.830;4.364;2023-02-15T03:29:17;40.95;;;26.58;;
23078;SDS011;11707;50.830;4.364;2023-02-15T03:31:46;43.55;;;27.42;;
23078;SDS011;11707;50.830;4.364;2023-02-15T03:34:15;43.83;;;26.38;;
23078;SDS011;11707;50.830;4.364;2023-02-15T03:39:17;42.40;;;27.57;;
23078;SDS011;11707;50.830;4.364;2023-02-15T03:41:54;43.70;;;26.77;;
23078;SDS011;11707;50.830;4.364;2023-02-15T03:44:58;41.08;;;26.42;;
23078;SDS011;11707;50.830;4.364;2023-02-15T03:47:35;42.33;;;25.63;;
23078;SDS011;11707;50.830;4.364;2023-02-15T03:50:05;40.63;;;26.23;;
23078;SDS011;11707;50.830;4.364;2023-02-15T03:53:13;41.30;;;27.00;;
23078;SDS011;11707;50.830;4.364;2023-02-15T03:55:41;45.05;;;27.05;;
23078;SDS011;11707;50.830;4.364;2023-02-15T03:58:06;45.03;;;27.05;;
23078;SDS011;11707;50.830;4.364;2023-02-15T04:03:40;41.42;;;24.48;;
23078;SDS011;11707;50.830;4.364;2023-02-15T04:06:11;41.58;;;25.90;;
23078;SDS011;11707;50.830;4.364;2023-02-15T04:08:37;44.90;;;28.40;;
23078;SDS011;11707;50.830;4.364;2023-02-15T04:11:21;43.97;;;26.55;;
23078;SDS011;11707;50.830;4.364;2023-02-15T04:13:47;45.80;;;27.25;;
23078;SDS011;11707;50.830;4.364;2023-02-15T04:16:24;41.28;;;27.17;;
23078;SDS011;11707;50.830;4.364;2023-02-15T04:18:51;38.97;;;25.55;;
23078;SDS011;11707;50.830;4.364;2023-02-15T04:21:35;42.90;;;26.25;;
23078;SDS011;11707;50.830;4.364;2023-02-15T04:24:19;39.90;;;26.35;;
23078;SDS011;11707;50.830;4.364;2023-02-15T04:27:04;39.65;;;25.30;;
23078;SDS011;11707;50.830;4.364;2023-02-15T04:29:30;44.05;;;26.38;;
23078;SDS011;11707;50.830;4.364;2023-02-15T04:31:57;44.00;;;25.50;;
23078;SDS011;11707;50.830;4.364;2023-02-15T04:34:24;39.47;;;24.67;;
23078;SDS011;11707;50.830;4.364;2023-02-15T04:36:51;42.65;;;25.40;;
23078;SDS011;11707;50.830;4.364;2023-02-15T04:39:17;41.95;;;25.33;;
23078;SDS011;11707;50.830;4.364;2023-02-15T04:41:43;39.15;;;24.17;;
23078;SDS011;11707;50.830;4.364;2023-02-15T04:44:09;43.00;;;24.67;;
23078;SDS011;11707;50.830;4.364;2023-02-15T04:46:35;38.67;;;24.55;;
23078;SDS011;11707;50.830;4.364;2023-02-15T04:49:01;39.50;;;24.65;;
23078;SDS011;11707;50.830;4.364;2023-02-15T04:51:28;34.80;;;23.08;;
23078;SDS011;11707;50.830;4.364;2023-02-15T04:53:54;35.72;;;22.80;;
23078;SDS011;11707;50.830;4.364;2023-02-15T04:56:20;37.60;;;23.40;;
23078;SDS011;11707;50.830;4.364;2023-02-15T04:58:46;39.63;;;23.38;;
23078;SDS011;11707;50.830;4.364;2023-02-15T05:01:12;37.60;;;23.42;;
23078;SDS011;11707;50.830;4.364;2023-02-15T05:03:38;35.70;;;22.40;;
23078;SDS011;11707;50.830;4.364;2023-02-15T05:06:03;41.58;;;23.65;;
23078;SDS011;11707;50.830;4.364;2023-02-15T05:08:29;38.08;;;23.38;;
23078;SDS011;11707;50.830;4.364;2023-02-15T05:10:55;39.35;;;23.13;;
23078;SDS011;11707;50.830;4.364;2023-02-15T05:13:22;36.30;;;23.30;;
23078;SDS011;11707;50.830;4.364;2023-02-15T05:15:48;34.78;;;22.13;;
23078;SDS011;11707;50.830;4.364;2023-02-15T05:18:16;43.80;;;23.70;;
23078;SDS011;11707;50.830;4.364;2023-02-15T05:20:42;35.80;;;23.10;;
23078;SDS011;11707;50.830;4.364;2023-02-15T05:23:08;36.03;;;22.10;;
23078;SDS011;11707;50.830;4.364;2023-02-15T05:25:34;34.08;;;21.95;;
23078;SDS011;11707;50.830;4.364;2023-02-15T05:28:19;35.30;;;22.52;;
23078;SDS011;11707;50.830;4.364;2023-02-15T05:31:07;36.88;;;23.55;;
23078;SDS011;11707;50.830;4.364;2023-02-15T05:33:32;39.88;;;22.70;;
23078;SDS011;11707;50.830;4.364;2023-02-15T05:35:58;35.85;;;21.52;;
23078;SDS011;11707;50.830;4.364;2023-02-15T05:38:24;42.95;;;23.40;;
23078;SDS011;11707;50.830;4.364;2023-02-15T05:40:50;38.05;;;22.50;;
23078;SDS011;11707;50.830;4.364;2023-02-15T05:43:17;39.50;;;22.95;;
23078;SDS011;11707;50.830;4.364;2023-02-15T05:45:47;43.45;;;23.85;;
23078;SDS011;11707;50.830;4.364;2023-02-15T05:48:13;39.72;;;21.50;;
23078;SDS011;11707;50.830;4.364;2023-02-15T05:50:39;39.42;;;21.90;;
23078;SDS011;11707;50.830;4.364;2023-02-15T05:53:05;34.72;;;22.50;;
23078;SDS011;11707;50.830;4.364;2023-02-15T05:55:31;44.97;;;23.17;;
23078;SDS011;11707;50.830;4.364;2023-02-15T05:57:56;36.65;;;23.27;;
23078;SDS011;11707;50.830;4.364;2023-02-15T06:00:22;40.47;;;24.48;;
23078;SDS011;11707;50.830;4.364;2023-02-15T06:02:48;38.65;;;24.05;;
23078;SDS011;11707;50.830;4.364;2023-02-15T06:05:14;38.53;;;23.58;;
23078;SDS011;11707;50.830;4.364;2023-02-15T06:07:42;33.00;;;22.63;;
23078;SDS011;11707;50.830;4.364;2023-02-15T06:10:09;37.70;;;22.20;;
23078;SDS011;11707;50.830;4.364;2023-02-15T06:12:35;36.50;;;22.20;;
23078;SDS011;11707;50.830;4.364;2023-02-15T06:15:01;46.05;;;24.33;;
23078;SDS011;11707;50.830;4.364;2023-02-15T06:17:27;41.97;;;25.23;;
23078;SDS011;11707;50.830;4.364;2023-02-15T06:19:53;39.65;;;23.27;;
23078;SDS011;11707;50.830;4.364;2023-02-15T06:22:18;41.65;;;23.85;;
23078;SDS011;11707;50.830;4.364;2023-02-15T06:24:45;50.67;;;23.92;;
23078;SDS011;11707;50.830;4.364;2023-02-15T06:27:11;36.40;;;22.48;;
23078;SDS011;11707;50.830;4.364;2023-02-15T06:29:37;37.08;;;23.13;;
23078;SDS011;11707;50.830;4.364;2023-02-15T06:32:03;38.15;;;23.75;;
23078;SDS011;11707;50.830;4.364;2023-02-15T06:34:29;46.03;;;22.92;;
23078;SDS011;11707;50.830;4.364;2023-02-15T06:36:55;44.67;;;23.75;;
23078;SDS011;11707;50.830;4.364;2023-02-15T06:39:21;43.42;;;23.17;;
23078;SDS011;11707;50.830;4.364;2023-02-15T06:41:47;38.28;;;22.45;;
23078;SDS011;11707;50.830;4.364;2023-02-15T06:44:12;39.72;;;22.98;;
23078;SDS011;11707;50.830;4.364;2023-02-15T06:46:38;45.45;;;24.83;;
23078;SDS011;11707;50.830;4.364;2023-02-15T06:49:04;44.40;;;24.55;;
23078;SDS011;11707;50.830;4.364;2023-02-15T06:51:30;37.05;;;22.85;;
23078;SDS011;11707;50.830;4.364;2023-02-15T06:53:55;43.95;;;23.63;;
23078;SDS011;11707;50.830;4.364;2023-02-15T06:56:21;41.20;;;24.60;;
23078;SDS011;11707;50.830;4.364;2023-02-15T06:58:47;44.63;;;23.52;;
23078;SDS011;11707;50.830;4.364;2023-02-15T07:01:14;42.45;;;23.85;;
23078;SDS011;11707;50.830;4.364;2023-02-15T07:03:40;38.17;;;24.23;;
23078;SDS011;11707;50.830;4.364;2023-02-15T07:06:06;38.85;;;23.08;;
23078;SDS011;11707;50.830;4.364;2023-02-15T07:08:34;47.22;;;23.90;;
23078;SDS011;11707;50.830;4.364;2023-02-15T07:11:00;43.50;;;24.05;;
23078;SDS011;11707;50.830;4.364;2023-02-15T07:13:47;39.97;;;22.77;;
23078;SDS011;11707;50.830;4.364;2023-02-15T07:16:12;42.17;;;24.20;;
23078;SDS011;11707;50.830;4.364;2023-02-15T07:18:39;45.83;;;25.60;;
23078;SDS011;11707;50.830;4.364;2023-02-15T07:21:05;51.50;;;26.77;;
23078;SDS011;11707;50.830;4.364;2023-02-15T07:23:37;41.58;;;23.42;;
23078;SDS011;11707;50.830;4.364;2023-02-15T07:26:04;53.53;;;24.88;;
23078;SDS011;11707;50.830;4.364;2023-02-15T07:28:32;40.08;;;26.17;;
23078;SDS011;11707;50.830;4.364;2023-02-15T07:31:00;52.83;;;24.90;;
23078;SDS011;11707;50.830;4.364;2023-02-15T07:33:27;42.67;;;23.92;;
23078;SDS011;11707;50.830;4.364;2023-02-15T07:35:56;52.88;;;23.55;;
23078;SDS011;11707;50.830;4.364;2023-02-15T07:38:24;45.15;;;23.35;;
23078;SDS011;11707;50.830;4.364;2023-02-15T07:40:51;40.88;;;23.60;;
23078;SDS011;11707;50.830;4.364;2023-02-15T07:43:22;33.97;;;22.38;;
23078;SDS011;11707;50.830;4.364;2023-02-15T07:45:48;39.38;;;23.02;;
23078;SDS011;11707;50.830;4.364;2023-02-15T07:48:13;44.63;;;21.88;;
23078;SDS011;11707;50.830;4.364;2023-02-15T07:50:39;44.70;;;22.25;;
23078;SDS011;11707;50.830;4.364;2023-02-15T07:53:05;41.60;;;23.98;;
23078;SDS011;11707;50.830;4.364;2023-02-15T07:55:31;38.53;;;23.38;;
23078;SDS011;11707;50.830;4.364;2023-02-15T07:57:56;45.65;;;24.13;;
23078;SDS011;11707;50.830;4.364;2023-02-15T08:00:22;38.13;;;21.63;;
23078;SDS011;11707;50.830;4.364;2023-02-15T08:02:56;48.10;;;22.83;;
23078;SDS011;11707;50.830;4.364;2023-02-15T08:05:40;36.25;;;21.52;;
23078;SDS011;11707;50.830;4.364;2023-02-15T08:08:08;36.00;;;21.20;;
23078;SDS011;11707;50.830;4.364;2023-02-15T08:10:53;40.72;;;22.83;;
23078;SDS011;11707;50.830;4.364;2023-02-15T08:13:46;40.13;;;19.52;;
23078;SDS011;11707;50.830;4.364;2023-02-15T08:16:22;44.78;;;21.92;;
23078;SDS011;11707;50.830;4.364;2023-02-15T08:18:54;35.47;;;20.55;;
23078;SDS011;11707;50.830;4.364;2023-02-15T08:21:21;39.65;;;21.15;;
23078;SDS011;11707;50.830;4.364;2023-02-15T08:23:48;34.20;;;21.23;;
23078;SDS011;11707;50.830;4.364;2023-02-15T08:26:13;37.40;;;20.52;;
23078;SDS011;11707;50.830;4.364;2023-02-15T08:28:40;41.65;;;20.35;;
23078;SDS011;11707;50.830;4.364;2023-02-15T08:31:07;39.80;;;21.83;;
23078;SDS011;11707;50.830;4.364;2023-02-15T08:33:34;37.05;;;21.33;;
23078;SDS011;11707;50.830;4.364;2023-02-15T08:36:07;45.70;;;21.80;;
23078;SDS011;11707;50.830;4.364;2023-02-15T08:38:35;36.72;;;20.38;;
23078;SDS011;11707;50.830;4.364;2023-02-15T08:43:46;56.55;;;23.55;;
23078;SDS011;11707;50.830;4.364;2023-02-15T08:46:15;36.42;;;20.27;;
23078;SDS011;11707;50.830;4.364;2023-02-15T08:48:42;35.53;;;18.70;;
23078;SDS011;11707;50.830;4.364;2023-02-15T08:53:39;33.63;;;18.05;;
23078;SDS011;11707;50.830;4.364;2023-02-15T08:56:06;32.25;;;18.98;;
23078;SDS011;11707;50.830;4.364;2023-02-15T08:58:33;34.92;;;20.75;;
23078;SDS011;11707;50.830;4.364;2023-02-15T09:00:59;30.35;;;18.92;;
23078;SDS011;11707;50.830;4.364;2023-02-15T09:03:27;37.40;;;20.55;;
23078;SDS011;11707;50.830;4.364;2023-02-15T09:05:58;37.42;;;19.90;;
23078;SDS011;11707;50.830;4.364;2023-02-15T09:08:25;37.67;;;20.02;;
23078;SDS011;11707;50.830;4.364;2023-02-15T09:10:51;36.22;;;19.88;;
23078;SDS011;11707;50.830;4.364;2023-02-15T09:13:17;48.60;;;21.25;;
23078;SDS011;11707;50.830;4.364;2023-02-15T09:15:42;37.78;;;20.08;;
23078;SDS011;11707;50.830;4.364;2023-02-15T09:18:08;34.20;;;20.13;;
23078;SDS011;11707;50.830;4.364;2023-02-15T09:20:37;50.33;;;22.42;;
23078;SDS011;11707;50.830;4.364;2023-02-15T09:23:03;38.17;;;20.55;;
23078;SDS011;11707;50.830;4.364;2023-02-15T09:25:28;31.10;;;19.98;;
23078;SDS011;11707;50.830;4.364;2023-02-15T09:27:54;37.28;;;20.63;;
23078;SDS011;11707;50.830;4.364;2023-02-15T09:30:20;35.58;;;20.08;;
23078;SDS011;11707;50.830;4.364;2023-02-15T09:32:46;31.63;;;19.95;;
23078;SDS011;11707;50.830;4.364;2023-02-15T09:35:12;30.92;;;18.92;;
23078;SDS011;11707;50.830;4.364;2023-02-15T09:37:38;33.97;;;18.40;;
23078;SDS011;11707;50.830;4.364;2023-02-15T09:40:04;35.40;;;18.75;;
23078;SDS011;11707;50.830;4.364;2023-02-15T09:45:23;32.85;;;17.90;;
23078;SDS011;11707;50.830;4.364;2023-02-15T09:50:48;28.77;;;18.13;;
23078;SDS011;11707;50.830;4.364;2023-02-15T09:53:34;35.60;;;18.30;;
23078;SDS011;11707;50.830;4.364;2023-02-15T09:56:14;29.85;;;19.25;;
23078;SDS011;11707;50.830;4.364;2023-02-15T10:12:29;36.45;;;18.77;;
23078;SDS011;11707;50.830;4.364;2023-02-15T10:28:56;43.95;;;20.52;;
23078;SDS011;11707;50.830;4.364;2023-02-15T10:31:50;41.53;;;21.10;;
23078;SDS011;11707;50.830;4.364;2023-02-15T10:45:29;35.50;;;21.48;;
23078;SDS011;11707;50.830;4.364;2023-02-15T10:48:21;42.88;;;21.55;;
23078;SDS011;11707;50.830;4.364;2023-02-15T10:51:19;35.00;;;20.73;;
23078;SDS011;11707;50.830;4.364;2023-02-15T10:54:14;37.50;;;23.00;;
23078;SDS011;11707;50.830;4.364;2023-02-15T11:07:41;38.95;;;22.20;;
23078;SDS011;11707;50.830;4.364;2023-02-15T11:12:58;36.08;;;22.38;;
23078;SDS011;11707;50.830;4.364;2023-02-15T11:23:40;46.97;;;22.83;;
23078;SDS011;11707;50.830;4.364;2023-02-15T11:26:15;37.08;;;21.48;;
23078;SDS011;11707;50.830;4.364;2023-02-15T11:28:51;37.83;;;21.35;;
23078;SDS011;11707;50.830;4.364;2023-02-15T11:31:24;39.08;;;21.73;;
23078;SDS011;11707;50.830;4.364;2023-02-15T11:33:53;35.55;;;20.70;;
23078;SDS011;11707;50.830;4.364;2023-02-15T11:36:33;38.97;;;21.45;;
23078;SDS011;11707;50.830;4.364;2023-02-15T11:39:11;37.25;;;23.13;;
23078;SDS011;11707;50.830;4.364;2023-02-15T11:41:44;38.38;;;22.10;;
23078;SDS011;11707;50.830;4.364;2023-02-15T11:46:51;63.80;;;26.15;;
23078;SDS011;11707;50.830;4.364;2023-02-15T11:49:33;42.30;;;23.48;;
23078;SDS011;11707;50.830;4.364;2023-02-15T11:52:00;42.97;;;22.77;;
23078;SDS011;11707;50.830;4.364;2023-02-15T11:54:30;39.78;;;22.88;;
23078;SDS011;11707;50.830;4.364;2023-02-15T11:59:45;41.63;;;25.00;;
23078;SDS011;11707;50.830;4.364;2023-02-15T12:02:21;49.65;;;25.08;;
23078;SDS011;11707;50.830;4.364;2023-02-15T12:04:52;41.45;;;23.45;;
23078;SDS011;11707;50.830;4.364;2023-02-15T12:07:32;47.15;;;24.98;;
23078;SDS011;11707;50.830;4.364;2023-02-15T12:10:19;47.53;;;24.48;;
23078;SDS011;11707;50.830;4.364;2023-02-15T12:15:46;45.08;;;25.38;;
23078;SDS011;11707;50.830;4.364;2023-02-15T12:18:17;65.60;;;25.77;;
23078;SDS011;11707;50.830;4.364;2023-02-15T12:20:46;43.22;;;23.90;;
23078;SDS011;11707;50.830;4.364;2023-02-15T12:23:14;44.08;;;24.75;;
23078;SDS011;11707;50.830;4.364;2023-02-15T12:25:49;44.17;;;25.77;;
23078;SDS011;11707;50.830;4.364;2023-02-15T12:28:26;44.15;;;26.67;;
23078;SDS011;11707;50.830;4.364;2023-02-15T12:31:03;51.45;;;25.75;;
23078;SDS011;11707;50.830;4.364;2023-02-15T12:33:42;43.28;;;25.33;;
23078;SDS011;11707;50.830;4.364;2023-02-15T12:41:46;42.83;;;26.95;;
23078;SDS011;11707;50.830;4.364;2023-02-15T12:44:19;37.83;;;23.70;;
23078;SDS011;11707;50.830;4.364;2023-02-15T12:46:58;44.03;;;26.15;;
23078;SDS011;11707;50.830;4.364;2023-02-15T12:49:28;42.88;;;26.77;;
23078;SDS011;11707;50.830;4.364;2023-02-15T12:51:57;43.03;;;25.30;;
23078;SDS011;11707;50.830;4.364;2023-02-15T12:54:27;39.30;;;25.65;;
23078;SDS011;11707;50.830;4.364;2023-02-15T12:56:56;41.55;;;26.35;;
23078;SDS011;11707;50.830;4.364;2023-02-15T12:59:22;47.05;;;26.40;;
23078;SDS011;11707;50.830;4.364;2023-02-15T13:01:48;47.05;;;26.55;;
23078;SDS011;11707;50.830;4.364;2023-02-15T13:04:26;45.45;;;26.38;;
23078;SDS011;11707;50.830;4.364;2023-02-15T13:06:55;43.40;;;25.73;;
23078;SDS011;11707;50.830;4.364;2023-02-15T13:11:56;38.70;;;24.85;;
23078;SDS011;11707;50.830;4.364;2023-02-15T13:14:33;41.85;;;23.60;;
23078;SDS011;11707;50.830;4.364;2023-02-15T13:17:00;38.50;;;24.90;;
23078;SDS011;11707;50.830;4.364;2023-02-15T13:19:33;36.88;;;24.67;;
23078;SDS011;11707;50.830;4.364;2023-02-15T13:22:18;38.97;;;25.25;;
23078;SDS011;11707;50.830;4.364;2023-02-15T13:27:20;39.47;;;25.13;;
23078;SDS011;11707;50.830;4.364;2023-02-15T13:29:53;37.47;;;25.48;;
23078;SDS011;11707;50.830;4.364;2023-02-15T13:34:50;41.35;;;26.30;;
23078;SDS011;11707;50.830;4.364;2023-02-15T13:37:20;38.67;;;24.80;;
23078;SDS011;11707;50.830;4.364;2023-02-15T13:47:46;43.53;;;28.02;;
23078;SDS011;11707;50.830;4.364;2023-02-15T14:03:51;57.33;;;29.38;;
23078;SDS011;11707;50.830;4.364;2023-02-15T14:14:55;43.28;;;27.95;;
23078;SDS011;11707;50.830;4.364;2023-02-15T14:18:04;49.50;;;29.15;;
23078;SDS011;11707;50.830;4.364;2023-02-15T14:23:54;49.97;;;30.13;;
23078;SDS011;11707;50.830;4.364;2023-02-15T14:26:25;49.20;;;28.63;;
23078;SDS011;11707;50.830;4.364;2023-02-15T14:31:54;64.45;;;31.55;;
23078;SDS011;11707;50.830;4.364;2023-02-15T14:37:11;58.25;;;30.88;;
23078;SDS011;11707;50.830;4.364;2023-02-15T14:42:53;55.35;;;29.88;;
23078;SDS011;11707;50.830;4.364;2023-02-15T14:50:48;52.00;;;30.90;;
23078;SDS011;11707;50.830;4.364;2023-02-15T15:01:14;52.13;;;30.98;;
23078;SDS011;11707;50.830;4.364;2023-02-15T15:03:49;53.53;;;31.48;;
23078;SDS011;11707;50.830;4.364;2023-02-15T15:06:35;49.47;;;32.08;;
23078;SDS011;11707;50.830;4.364;2023-02-15T15:11:46;51.88;;;33.47;;
23078;SDS011;11707;50.830;4.364;2023-02-15T15:17:09;53.35;;;33.55;;
23078;SDS011;11707;50.830;4.364;2023-02-15T15:22:18;52.58;;;32.15;;
23078;SDS011;11707;50.830;4.364;2023-02-15T15:32:50;76.57;;;45.58;;
23078;SDS011;11707;50.830;4.364;2023-02-15T15:43:24;48.20;;;31.17;;
23078;SDS011;11707;50.830;4.364;2023-02-15T15:46:13;53.13;;;32.25;;
23078;SDS011;11707;50.830;4.364;2023-02-15T15:49:01;50.65;;;31.38;;
23078;SDS011;11707;50.830;4.364;2023-02-15T15:51:37;56.50;;;33.72;;
23078;SDS011;11707;50.830;4.364;2023-02-15T15:54:11;53.05;;;33.30;;
23078;SDS011;11707;50.830;4.364;2023-02-15T15:56:48;50.45;;;31.92;;
23078;SDS011;11707;50.830;4.364;2023-02-15T15:59:19;52.35;;;33.05;;
23078;SDS011;11707;50.830;4.364;2023-02-15T16:01:48;61.92;;;32.72;;
23078;SDS011;11707;50.830;4.364;2023-02-15T16:04:29;55.45;;;33.47;;
23078;SDS011;11707;50.830;4.364;2023-02-15T16:06:57;55.08;;;35.00;;
23078;SDS011;11707;50.830;4.364;2023-02-15T16:09:37;57.25;;;33.65;;
23078;SDS011;11707;50.830;4.364;2023-02-15T16:12:03;61.72;;;34.25;;
23078;SDS011;11707;50.830;4.364;2023-02-15T16:14:39;56.75;;;32.72;;
23078;SDS011;11707;50.830;4.364;2023-02-15T16:17:07;53.80;;;33.40;;
23078;SDS011;11707;50.830;4.364;2023-02-15T16:19:40;52.97;;;33.00;;
23078;SDS011;11707;50.830;4.364;2023-02-15T16:22:10;53.55;;;33.05;;
23078;SDS011;11707;50.830;4.364;2023-02-15T16:24:47;50.50;;;31.58;;
23078;SDS011;11707;50.830;4.364;2023-02-15T16:27:22;54.47;;;33.22;;
23078;SDS011;11707;50.830;4.364;2023-02-15T16:29:51;53.53;;;33.30;;
23078;SDS011;11707;50.830;4.364;2023-02-15T16:32:24;54.83;;;33.17;;
23078;SDS011;11707;50.830;4.364;2023-02-15T16:34:56;56.78;;;32.92;;
23078;SDS011;11707;50.830;4.364;2023-02-15T16:37:27;57.70;;;32.17;;
23078;SDS011;11707;50.830;4.364;2023-02-15T16:39:57;55.38;;;32.15;;
23078;SDS011;11707;50.830;4.364;2023-02-15T16:42:23;57.22;;;33.83;;
23078;SDS011;11707;50.830;4.364;2023-02-15T16:45:34;54.20;;;32.55;;
23078;SDS011;11707;50.830;4.364;2023-02-15T16:47:42;56.15;;;33.63;;
23078;SDS011;11707;50.830;4.364;2023-02-15T16:50:21;53.22;;;32.13;;
23078;SDS011;11707;50.830;4.364;2023-02-15T16:52:51;61.33;;;34.08;;
23078;SDS011;11707;50.830;4.364;2023-02-15T16:55:21;55.03;;;34.33;;
23078;SDS011;11707;50.830;4.364;2023-02-15T16:57:56;52.58;;;33.88;;
23078;SDS011;11707;50.830;4.364;2023-02-15T17:00:26;52.00;;;32.88;;
23078;SDS011;11707;50.830;4.364;2023-02-15T17:03:00;57.45;;;33.75;;
23078;SDS011;11707;50.830;4.364;2023-02-15T17:05:32;61.08;;;32.47;;
23078;SDS011;11707;50.830;4.364;2023-02-15T17:08:19;52.65;;;33.67;;
23078;SDS011;11707;50.830;4.364;2023-02-15T17:16:28;50.80;;;32.88;;
23078;SDS011;11707;50.830;4.364;2023-02-15T17:19:08;51.60;;;31.13;;
23078;SDS011;11707;50.830;4.364;2023-02-15T17:21:41;49.50;;;33.00;;
23078;SDS011;11707;50.830;4.364;2023-02-15T17:24:17;50.75;;;32.65;;
23078;SDS011;11707;50.830;4.364;2023-02-15T17:29:50;53.15;;;32.15;;
23078;SDS011;11707;50.830;4.364;2023-02-15T17:32:24;47.92;;;30.48;;
23078;SDS011;11707;50.830;4.364;2023-02-15T17:37:47;51.88;;;32.08;;
23078;SDS011;11707;50.830;4.364;2023-02-15T17:42:44;55.33;;;32.58;;
23078;SDS011;11707;50.830;4.364;2023-02-15T17:45:11;50.70;;;30.73;;
23078;SDS011;11707;50.830;4.364;2023-02-15T17:47:36;53.60;;;32.78;;
23078;SDS011;11707;50.830;4.364;2023-02-15T17:50:03;61.28;;;34.97;;
23078;SDS011;11707;50.830;4.364;2023-02-15T17:52:30;49.90;;;32.67;;
23078;SDS011;11707;50.830;4.364;2023-02-15T17:54:56;51.67;;;31.98;;
23078;SDS011;11707;50.830;4.364;2023-02-15T17:57:41;52.60;;;31.70;;
23078;SDS011;11707;50.830;4.364;2023-02-15T18:00:07;48.72;;;32.67;;
23078;SDS011;11707;50.830;4.364;2023-02-15T18:02:56;46.55;;;30.92;;
23078;SDS011;11707;50.830;4.364;2023-02-15T18:05:41;51.35;;;30.67;;
23078;SDS011;11707;50.830;4.364;2023-02-15T18:08:26;45.10;;;30.85;;
23078;SDS011;11707;50.830;4.364;2023-02-15T18:11:11;46.03;;;28.75;;
23078;SDS011;11707;50.830;4.364;2023-02-15T18:13:56;41.85;;;28.10;;
23078;SDS011;11707;50.830;4.364;2023-02-15T18:16:26;51.13;;;33.60;;
23078;SDS011;11707;50.830;4.364;2023-02-15T18:18:54;49.70;;;31.40;;
23078;SDS011;11707;50.830;4.364;2023-02-15T18:21:22;61.47;;;31.08;;
23078;SDS011;11707;50.830;4.364;2023-02-15T18:23:48;45.63;;;29.30;;
23078;SDS011;11707;50.830;4.364;2023-02-15T18:26:21;58.80;;;31.88;;
23078;SDS011;11707;50.830;4.364;2023-02-15T18:28:48;50.45;;;32.38;;
23078;SDS011;11707;50.830;4.364;2023-02-15T18:31:14;47.08;;;30.20;;